createdAt,value
2019-05-11T00:01:14.016Z,55.72
2019-05-11T00:03:40.073Z,55.82
2019-05-11T00:06:06.128Z,55.64
2019-05-11T00:08:32.590Z,55.64
2019-05-11T00:10:59.043Z,55.82
2019-05-11T00:13:25.090Z,55.69
2019-05-11T00:15:51.139Z,55.67
2019-05-11T00:18:17.194Z,55.66
2019-05-11T00:20:43.448Z,55.70
2019-05-11T00:23:09.406Z,55.62
2019-05-11T00:25:35.367Z,55.64
2019-05-11T00:28:01.432Z,55.49
2019-05-11T00:30:27.477Z,55.63
2019-05-11T00:32:53.424Z,55.72
2019-05-11T00:35:19.374Z,55.57
2019-05-11T00:37:45.328Z,55.41
2019-05-11T00:40:14.478Z,55.15
2019-05-11T00:42:38.983Z,54.97
2019-05-11T00:45:05.029Z,54.67
2019-05-11T00:47:31.488Z,54.82
2019-05-11T00:49:57.535Z,54.90
2019-05-11T00:52:23.586Z,54.62
2019-05-11T00:54:49.533Z,54.91
2019-05-11T00:57:15.619Z,55.02
2019-05-11T00:59:42.006Z,54.99
2019-05-11T01:02:08.375Z,54.89
2019-05-11T01:04:34.372Z,55.00
2019-05-11T01:07:01.355Z,54.84
2019-05-11T01:09:27.723Z,54.92
2019-05-11T01:11:54.174Z,55.07
2019-05-11T01:14:20.530Z,54.82
2019-05-11T01:16:46.991Z,54.86
2019-05-11T01:19:12.880Z,54.85
2019-05-11T01:21:38.902Z,54.83
2019-05-11T01:24:04.961Z,55.06
2019-05-11T01:26:33.910Z,54.90
2019-05-11T01:29:01.272Z,55.03
2019-05-11T01:31:27.227Z,54.97
2019-05-11T01:33:53.186Z,54.96
2019-05-11T01:36:19.076Z,54.79
2019-05-11T01:38:44.988Z,54.92
2019-05-11T01:41:10.935Z,54.96
2019-05-11T01:43:37.300Z,55.08
2019-05-11T01:46:03.349Z,54.82
2019-05-11T01:48:29.701Z,55.09
2019-05-11T01:50:55.750Z,54.86
2019-05-11T01:53:21.798Z,55.08
2019-05-11T01:55:47.748Z,54.99
2019-05-11T01:58:13.693Z,55.02
2019-05-11T02:00:39.743Z,55.30
2019-05-11T02:03:05.808Z,55.23
2019-05-11T02:05:31.861Z,55.18
2019-05-11T02:07:58.724Z,55.00
2019-05-11T02:10:24.802Z,54.93
2019-05-11T02:12:51.041Z,54.79
2019-05-11T02:15:16.896Z,54.98
2019-05-11T02:17:42.785Z,55.02
2019-05-11T02:20:08.649Z,54.96
2019-05-11T02:22:34.711Z,55.08
2019-05-11T02:25:02.728Z,55.10
2019-05-11T02:27:28.563Z,55.05
2019-05-11T02:29:54.437Z,54.96
2019-05-11T02:32:20.382Z,54.79
2019-05-11T02:34:46.752Z,54.51
2019-05-11T02:37:12.635Z,54.67
2019-05-11T02:39:38.767Z,54.56
2019-05-11T02:42:04.750Z,54.56
2019-05-11T02:44:32.593Z,54.48
2019-05-11T02:46:58.630Z,54.58
2019-05-11T02:49:27.901Z,54.15
2019-05-11T02:51:52.381Z,54.05
2019-05-11T02:54:18.864Z,54.12
2019-05-11T02:56:44.811Z,53.85
2019-05-11T02:59:11.077Z,53.81
2019-05-11T03:01:37.027Z,53.69
2019-05-11T03:04:02.909Z,53.77
2019-05-11T03:06:29.059Z,53.90
2019-05-11T03:08:55.000Z,53.90
2019-05-11T03:11:20.948Z,54.00
2019-05-11T03:13:47.005Z,53.98
2019-05-11T03:16:13.074Z,53.96
2019-05-11T03:18:39.118Z,53.75
2019-05-11T03:21:05.104Z,53.87
2019-05-11T03:23:31.141Z,53.79
2019-05-11T03:25:57.197Z,53.90
2019-05-11T03:28:23.656Z,53.98
2019-05-11T03:30:49.708Z,54.02
2019-05-11T03:33:15.692Z,54.05
2019-05-11T03:35:41.829Z,53.96
2019-05-11T03:38:07.917Z,54.00
2019-05-11T03:40:33.955Z,54.12
2019-05-11T03:43:00.110Z,54.25
2019-05-11T03:45:26.159Z,54.03
2019-05-11T03:47:52.541Z,53.99
2019-05-11T03:50:18.591Z,54.11
2019-05-11T03:52:44.660Z,54.06
2019-05-11T03:55:10.710Z,54.00
2019-05-11T03:57:36.764Z,53.97
2019-05-11T04:00:04.038Z,53.80
2019-05-11T04:02:30.316Z,53.74
2019-05-11T04:04:56.341Z,53.94
2019-05-11T04:07:22.393Z,53.79
2019-05-11T04:09:48.441Z,53.85
2019-05-11T04:12:32.852Z,53.85
2019-05-11T04:14:42.112Z,53.73
2019-05-11T04:17:07.985Z,53.87
2019-05-11T04:19:33.969Z,53.61
2019-05-11T04:22:02.500Z,53.89
2019-05-11T04:24:28.426Z,53.87
2019-05-11T04:26:54.400Z,53.74
2019-05-11T04:29:20.441Z,53.82
2019-05-11T04:31:46.413Z,53.90
2019-05-11T04:34:12.368Z,53.67
2019-05-11T04:36:38.251Z,53.70
2019-05-11T04:39:05.467Z,53.86
2019-05-11T04:41:31.367Z,53.74
2019-05-11T04:43:57.311Z,53.69
2019-05-11T04:46:23.358Z,53.57
2019-05-11T04:48:49.418Z,53.41
2019-05-11T04:51:15.485Z,53.74
2019-05-11T04:53:41.517Z,53.74
2019-05-11T04:56:07.579Z,53.56
2019-05-11T04:58:33.628Z,53.81
2019-05-11T05:00:59.675Z,53.79
2019-05-11T05:03:39.799Z,53.59
2019-05-11T05:05:53.334Z,53.74
2019-05-11T05:08:21.105Z,53.48
2019-05-11T05:10:52.257Z,53.61
2019-05-11T05:13:15.083Z,53.62
2019-05-11T05:15:41.140Z,53.42
2019-05-11T05:18:07.087Z,53.52
2019-05-11T05:20:33.048Z,53.80
2019-05-11T05:22:59.428Z,53.87
2019-05-11T05:25:27.716Z,53.65
2019-05-11T05:27:54.159Z,53.80
2019-05-11T05:30:20.220Z,53.65
2019-05-11T05:32:46.269Z,53.63
2019-05-11T05:35:14.493Z,53.49
2019-05-11T05:37:40.948Z,53.18
2019-05-11T05:40:07.176Z,53.33
2019-05-11T05:42:33.485Z,53.14
2019-05-11T05:44:59.739Z,52.92
2019-05-11T05:47:26.017Z,53.08
2019-05-11T05:49:53.648Z,53.00
2019-05-11T05:52:20.901Z,52.97
2019-05-11T05:54:47.119Z,52.84
2019-05-11T05:57:13.446Z,52.72
2019-05-11T05:59:39.711Z,52.97
2019-05-11T06:02:05.874Z,53.10
2019-05-11T06:04:31.935Z,52.84
2019-05-11T06:06:57.893Z,53.08
2019-05-11T06:09:23.944Z,52.97
2019-05-11T06:11:49.927Z,53.21
2019-05-11T06:14:15.963Z,53.07
2019-05-11T06:16:42.742Z,53.14
2019-05-11T06:19:08.871Z,52.96
2019-05-11T06:21:34.926Z,53.92
2019-05-11T06:24:06.635Z,54.25
2019-05-11T06:26:32.508Z,54.15
2019-05-11T06:28:58.515Z,53.67
2019-05-11T06:31:24.477Z,54.76
2019-05-11T06:33:52.286Z,54.49
2019-05-11T06:36:18.717Z,54.41
2019-05-11T06:38:44.773Z,54.50
2019-05-11T06:41:10.734Z,54.64
2019-05-11T06:43:36.678Z,54.52
2019-05-11T06:46:02.840Z,54.44
2019-05-11T06:48:28.884Z,54.72
2019-05-11T06:50:54.933Z,54.67
2019-05-11T06:53:21.309Z,54.90
2019-05-11T06:55:47.359Z,55.26
2019-05-11T06:58:13.415Z,55.27
2019-05-11T07:00:40.268Z,54.92
2019-05-11T07:03:07.397Z,55.44
2019-05-11T07:05:35.484Z,55.46
2019-05-11T07:08:04.621Z,55.44
2019-05-11T07:10:32.738Z,55.44
2019-05-11T07:12:58.785Z,55.45
2019-05-11T07:15:25.144Z,55.46
2019-05-11T07:17:51.032Z,55.57
2019-05-11T07:20:17.051Z,55.46
2019-05-11T07:22:42.938Z,55.48
2019-05-11T07:25:08.812Z,55.51
2019-05-11T07:27:34.820Z,55.64
2019-05-11T07:30:04.666Z,55.63
2019-05-11T07:32:32.585Z,55.67
2019-05-11T07:34:58.548Z,55.58
2019-05-11T07:37:24.579Z,55.57
2019-05-11T07:39:50.536Z,55.67
2019-05-11T07:42:18.047Z,55.72
2019-05-11T07:44:44.403Z,55.69
2019-05-11T07:47:10.312Z,55.67
2019-05-11T07:49:38.271Z,55.73
2019-05-11T07:52:04.085Z,55.80
2019-05-11T07:54:30.346Z,55.73
2019-05-11T07:56:58.359Z,55.56
2019-05-11T07:59:24.538Z,55.72
2019-05-11T08:01:50.491Z,55.65
2019-05-11T08:04:18.312Z,55.67
2019-05-11T08:06:44.142Z,55.64
2019-05-11T08:09:10.511Z,55.86
2019-05-11T08:11:38.865Z,55.76
2019-05-11T08:14:05.070Z,55.66
2019-05-11T08:16:30.983Z,55.65
2019-05-11T08:18:58.956Z,55.06
2019-05-11T08:21:24.851Z,55.26
2019-05-11T08:23:51.078Z,55.13
2019-05-11T08:26:19.006Z,55.11
2019-05-11T08:28:44.995Z,55.23
2019-05-11T08:31:11.018Z,54.18
2019-05-11T08:33:38.904Z,54.38
2019-05-11T08:36:04.604Z,53.21
2019-05-11T08:38:32.530Z,54.30
2019-05-11T08:40:59.175Z,54.10
2019-05-11T08:43:25.093Z,53.36
2019-05-11T08:45:50.982Z,54.47
2019-05-11T08:48:18.734Z,54.82
2019-05-11T08:50:44.665Z,54.83
2019-05-11T08:53:10.563Z,54.76
2019-05-11T08:55:38.130Z,54.80
2019-05-11T08:58:04.519Z,54.68
2019-05-11T09:00:33.407Z,54.83
2019-05-11T09:02:59.451Z,54.74
2019-05-11T09:05:27.813Z,54.69
2019-05-11T09:07:53.142Z,55.07
2019-05-11T09:10:19.159Z,54.87
2019-05-11T09:12:45.436Z,54.67
2019-05-11T09:15:11.462Z,54.87
2019-05-11T09:17:38.161Z,54.74
2019-05-11T09:20:04.606Z,54.92
2019-05-11T09:22:33.230Z,54.88
2019-05-11T09:24:59.257Z,54.83
2019-05-11T09:27:25.146Z,54.78
2019-05-11T09:29:51.232Z,54.77
2019-05-11T09:32:17.970Z,54.74
2019-05-11T09:34:44.299Z,54.72
2019-05-11T09:37:10.441Z,54.73
2019-05-11T09:39:38.297Z,54.70
2019-05-11T09:42:04.273Z,54.70
2019-05-11T09:44:33.108Z,54.61
2019-05-11T09:47:02.381Z,54.56
2019-05-11T09:49:43.333Z,54.27
2019-05-11T09:51:54.626Z,53.41
2019-05-11T09:54:20.597Z,53.35
2019-05-11T09:56:48.487Z,53.54
2019-05-11T09:59:14.310Z,53.38
2019-05-11T10:01:40.193Z,53.37
2019-05-11T10:04:08.775Z,53.29
2019-05-11T10:06:34.604Z,53.61
2019-05-11T10:09:02.554Z,53.73
2019-05-11T10:11:28.444Z,53.99
2019-05-11T10:13:54.338Z,54.13
2019-05-11T10:16:20.216Z,53.99
2019-05-11T10:18:48.884Z,54.14
2019-05-11T10:21:13.960Z,54.00
2019-05-11T10:23:42.575Z,54.05
2019-05-11T10:26:08.079Z,53.77
2019-05-11T10:28:33.987Z,53.99
2019-05-11T10:31:02.513Z,54.00
2019-05-11T10:33:28.462Z,53.79
2019-05-11T10:35:54.516Z,53.71
2019-05-11T10:38:20.578Z,53.54
2019-05-11T10:40:48.004Z,54.01
2019-05-11T10:43:14.278Z,53.45
2019-05-11T10:45:40.469Z,53.88
2019-05-11T10:48:08.753Z,53.75
2019-05-11T10:50:34.858Z,53.87
2019-05-11T10:53:04.298Z,53.72
2019-05-11T10:55:32.754Z,53.49
2019-05-11T10:57:58.783Z,53.12
2019-05-11T11:00:24.832Z,53.58
2019-05-11T11:02:50.818Z,53.58
2019-05-11T11:05:18.698Z,52.97
2019-05-11T11:07:44.454Z,53.35
2019-05-11T11:10:10.723Z,53.54
2019-05-11T11:12:38.523Z,53.67
2019-05-11T11:15:04.704Z,53.75
2019-05-11T11:17:33.728Z,53.81
2019-05-11T11:19:59.614Z,53.95
2019-05-11T11:22:39.149Z,53.90
2019-05-11T11:24:53.285Z,53.92
2019-05-11T11:27:19.167Z,54.00
2019-05-11T11:29:45.141Z,54.06
2019-05-11T11:32:11.424Z,53.98
2019-05-11T11:34:38.366Z,54.00
2019-05-11T11:37:04.529Z,54.15
2019-05-11T11:39:32.637Z,54.14
2019-05-11T11:41:58.787Z,54.15
2019-05-11T11:44:24.694Z,54.13
2019-05-11T11:46:54.912Z,54.17
2019-05-11T11:49:18.746Z,54.16
2019-05-11T11:51:45.068Z,54.12
2019-05-11T11:54:10.995Z,54.22
2019-05-11T11:56:37.999Z,54.21
2019-05-11T11:59:04.304Z,54.21
2019-05-11T12:01:31.414Z,54.08
2019-05-11T12:03:58.134Z,54.22
2019-05-11T12:06:24.170Z,54.22
2019-05-11T12:08:50.079Z,54.23
2019-05-11T12:11:18.538Z,54.21
2019-05-11T12:13:43.923Z,54.14
2019-05-11T12:16:10.037Z,54.21
2019-05-11T12:18:37.890Z,54.21
2019-05-11T12:21:03.878Z,54.16
2019-05-11T12:23:31.781Z,54.28
2019-05-11T12:25:58.113Z,54.25
2019-05-11T12:28:24.183Z,54.20
2019-05-11T12:30:50.335Z,54.13
2019-05-11T12:33:18.526Z,54.22
2019-05-11T12:35:44.213Z,54.23
2019-05-11T12:38:10.147Z,54.25
2019-05-11T12:40:38.683Z,54.27
2019-05-11T12:43:03.766Z,54.36
2019-05-11T12:45:29.801Z,54.34
2019-05-11T12:47:58.433Z,54.33
2019-05-11T12:50:23.845Z,54.31
2019-05-11T12:52:49.899Z,54.23
2019-05-11T12:55:17.883Z,54.37
2019-05-11T12:57:44.042Z,54.20
2019-05-11T13:00:10.092Z,54.35
2019-05-11T13:02:38.584Z,54.41
2019-05-11T13:05:05.877Z,54.46
2019-05-11T13:07:31.927Z,54.35
2019-05-11T13:09:58.071Z,54.33
2019-05-11T13:12:24.121Z,54.38
2019-05-11T13:14:50.184Z,54.25
2019-05-11T13:17:18.423Z,54.26
2019-05-11T13:19:43.937Z,54.20
2019-05-11T13:22:10.101Z,54.11
2019-05-11T13:24:38.400Z,54.05
2019-05-11T13:27:03.954Z,54.05
2019-05-11T13:29:31.363Z,54.09
2019-05-11T13:31:59.185Z,54.16
2019-05-11T13:34:28.512Z,54.21
2019-05-11T13:36:53.075Z,54.23
2019-05-11T13:39:19.124Z,54.22
2019-05-11T13:41:47.439Z,54.22
2019-05-11T13:44:12.871Z,54.18
2019-05-11T13:46:39.009Z,54.28
2019-05-11T13:49:05.586Z,54.36
2019-05-11T13:51:31.737Z,54.40
2019-05-11T13:53:58.452Z,54.35
2019-05-11T13:56:24.865Z,54.49
2019-05-11T13:58:50.904Z,54.38
2019-05-11T14:01:18.441Z,54.41
2019-05-11T14:03:44.744Z,54.44
2019-05-11T14:06:10.793Z,54.62
2019-05-11T14:08:38.414Z,54.53
2019-05-11T14:11:04.531Z,54.61
2019-05-11T14:13:33.357Z,54.63
2019-05-11T14:15:59.402Z,54.67
2019-05-11T14:18:25.459Z,54.68
2019-05-11T14:20:51.367Z,54.63
2019-05-11T14:23:18.277Z,54.70
2019-05-11T14:25:44.364Z,54.72
2019-05-11T14:28:10.402Z,54.82
2019-05-11T14:30:38.114Z,54.85
2019-05-11T14:33:04.472Z,54.82
2019-05-11T14:35:33.173Z,54.90
2019-05-11T14:37:59.138Z,55.10
2019-05-11T14:40:25.275Z,55.16
2019-05-11T14:42:51.467Z,55.15
2019-05-11T14:45:18.690Z,55.36
2019-05-11T14:47:45.004Z,55.40
2019-05-11T14:50:11.374Z,55.55
2019-05-11T14:52:38.794Z,55.54
2019-05-11T14:55:07.945Z,55.66
2019-05-11T14:57:34.423Z,55.72
2019-05-11T15:00:00.709Z,55.77
2019-05-11T15:02:45.096Z,55.64
2019-05-11T15:05:11.252Z,55.97
2019-05-11T15:07:38.594Z,56.27
2019-05-11T15:10:07.892Z,56.28
2019-05-11T15:12:33.651Z,56.05
2019-05-11T15:14:59.708Z,56.07
2019-05-11T15:17:28.024Z,56.38
2019-05-11T15:19:53.754Z,56.08
2019-05-11T15:22:19.700Z,56.13
2019-05-11T15:24:45.668Z,56.21
2019-05-11T15:27:11.819Z,56.06
2019-05-11T15:29:37.809Z,55.90
2019-05-11T15:32:04.055Z,55.84
2019-05-11T15:34:32.691Z,55.82
2019-05-11T15:36:58.851Z,55.81
2019-05-11T15:39:25.112Z,55.86
2019-05-11T15:41:51.160Z,55.87
2019-05-11T15:44:18.263Z,55.83
2019-05-11T15:46:44.439Z,55.90
2019-05-11T15:49:10.361Z,55.94
2019-05-11T15:51:40.779Z,55.94
2019-05-11T15:54:04.520Z,56.01
2019-05-11T15:56:31.208Z,56.00
2019-05-11T15:58:57.810Z,56.07
2019-05-11T16:01:24.342Z,55.94
2019-05-11T16:03:50.282Z,56.28
2019-05-11T16:06:18.330Z,56.38
2019-05-11T16:08:45.646Z,56.38
2019-05-11T16:11:11.715Z,56.52
2019-05-11T16:13:37.833Z,56.54
2019-05-11T16:16:03.859Z,56.52
2019-05-11T16:18:32.851Z,56.48
2019-05-11T16:20:58.895Z,56.64
2019-05-11T16:23:24.947Z,56.70
2019-05-11T16:25:51.404Z,56.69
2019-05-11T16:28:19.342Z,56.71
2019-05-11T16:30:45.074Z,56.78
2019-05-11T16:33:11.077Z,56.78
2019-05-11T16:35:38.292Z,56.80
2019-05-11T16:38:04.404Z,56.79
2019-05-11T16:40:33.029Z,56.81
2019-05-11T16:42:59.162Z,56.86
2019-05-11T16:45:27.961Z,56.93
2019-05-11T16:47:53.276Z,56.92
2019-05-11T16:50:19.234Z,56.93
2019-05-11T16:52:47.903Z,56.94
2019-05-11T16:55:13.201Z,57.04
2019-05-11T16:57:39.250Z,57.04
2019-05-11T17:00:08.670Z,57.00
2019-05-11T17:02:34.523Z,57.13
2019-05-11T17:05:02.532Z,57.09
2019-05-11T17:07:30.043Z,57.17
2019-05-11T17:09:57.837Z,57.22
2019-05-11T17:12:24.285Z,57.16
2019-05-11T17:14:55.121Z,57.16
2019-05-11T17:17:22.639Z,57.19
2019-05-11T17:19:49.179Z,57.24
2019-05-11T17:22:15.328Z,57.40
2019-05-11T17:24:41.220Z,57.31
2019-05-11T17:27:08.830Z,57.14
2019-05-11T17:29:34.803Z,57.02
2019-05-11T17:32:03.780Z,57.00
2019-05-11T17:34:29.647Z,56.95
2019-05-11T17:36:57.858Z,56.83
2019-05-11T17:39:23.509Z,56.93
2019-05-11T17:41:49.527Z,57.15
2019-05-11T17:44:18.338Z,57.14
2019-05-11T17:46:43.425Z,57.08
2019-05-11T17:49:09.298Z,57.21
2019-05-11T17:51:37.720Z,57.29
2019-05-11T17:54:03.105Z,57.30
2019-05-11T17:56:29.516Z,57.26
2019-05-11T17:58:55.398Z,57.26
2019-05-11T18:01:21.303Z,57.33
2019-05-11T18:03:47.182Z,57.42
2019-05-11T18:06:13.431Z,57.37
2019-05-11T18:08:39.297Z,57.36
2019-05-11T18:11:05.234Z,57.34
2019-05-11T18:13:31.089Z,57.34
2019-05-11T18:15:57.794Z,57.32
2019-05-11T18:18:24.322Z,57.31
2019-05-11T18:20:50.249Z,57.26
2019-05-11T18:23:17.595Z,57.29
2019-05-11T18:25:43.617Z,57.34
2019-05-11T18:28:09.487Z,57.22
2019-05-11T18:30:35.368Z,57.32
2019-05-11T18:33:01.255Z,57.30
2019-05-11T18:35:27.846Z,57.37
2019-05-11T18:37:53.909Z,57.24
2019-05-11T18:40:19.794Z,57.24
2019-05-11T18:42:45.692Z,57.28
2019-05-11T18:45:11.581Z,57.26
2019-05-11T18:47:38.281Z,57.31
2019-05-11T18:50:04.344Z,57.22
2019-05-11T18:52:32.747Z,57.31
2019-05-11T18:54:58.642Z,57.24
2019-05-11T18:57:27.789Z,57.30
2019-05-11T18:59:53.904Z,57.06
2019-05-11T19:02:19.797Z,57.06
2019-05-11T19:04:45.683Z,57.22
2019-05-11T19:07:16.905Z,57.31
2019-05-11T19:09:39.827Z,57.21
2019-05-11T19:12:08.391Z,56.98
2019-05-11T19:14:33.488Z,57.17
2019-05-11T19:16:59.408Z,57.21
2019-05-11T19:19:25.286Z,57.22
2019-05-11T19:21:51.178Z,57.16
2019-05-11T19:24:18.955Z,57.15
2019-05-11T19:26:44.734Z,57.25
2019-05-11T19:29:10.614Z,57.19
2019-05-11T19:31:38.415Z,57.03
2019-05-11T19:34:04.188Z,57.10
2019-05-11T19:36:30.856Z,57.09
2019-05-11T19:38:58.388Z,57.26
2019-05-11T19:41:24.880Z,57.05
2019-05-11T19:43:50.786Z,56.99
2019-05-11T19:46:18.438Z,57.11
2019-05-11T19:48:44.669Z,56.80
2019-05-11T19:51:11.929Z,56.53
2019-05-11T19:53:38.600Z,56.15
2019-05-11T19:56:04.629Z,56.76
2019-05-11T19:58:33.552Z,56.60
2019-05-11T20:00:59.470Z,56.44
2019-05-11T20:03:25.590Z,56.36
2019-05-11T20:05:51.840Z,56.44
2019-05-11T20:08:18.432Z,56.52
2019-05-11T20:10:44.609Z,56.51
2019-05-11T20:13:10.854Z,56.59
2019-05-11T20:15:38.171Z,56.65
2019-05-11T20:18:04.236Z,56.37
2019-05-11T20:20:30.615Z,56.46
2019-05-11T20:22:58.471Z,56.32
2019-05-11T20:25:24.169Z,56.21
2019-05-11T20:27:50.128Z,56.34
2019-05-11T20:30:18.545Z,56.48
2019-05-11T20:32:44.045Z,56.49
2019-05-11T20:35:10.908Z,56.49
2019-05-11T20:37:38.307Z,56.60
2019-05-11T20:40:04.824Z,56.61
2019-05-11T20:42:38.074Z,56.26
2019-05-11T20:45:04.922Z,56.29
2019-05-11T20:47:33.869Z,56.07
2019-05-11T20:49:59.785Z,56.15
2019-05-11T20:52:28.292Z,56.22
2019-05-11T20:54:53.549Z,56.20
2019-05-11T20:57:20.030Z,56.27
2019-05-11T20:59:46.058Z,55.92
2019-05-11T21:02:12.225Z,55.82
2019-05-11T21:04:38.554Z,55.64
2019-05-11T21:07:04.642Z,55.91
2019-05-11T21:09:30.919Z,55.51
2019-05-11T21:11:58.939Z,55.63
2019-05-11T21:14:24.518Z,56.10
2019-05-11T21:16:50.510Z,55.92
2019-05-11T21:19:18.616Z,55.98
2019-05-11T21:21:50.117Z,56.16
2019-05-11T21:24:12.052Z,55.28
2019-05-11T21:26:38.530Z,55.67
2019-05-11T21:29:05.108Z,55.77
2019-05-11T21:31:31.034Z,55.52
2019-05-11T21:33:57.077Z,55.27
2019-05-11T21:36:23.041Z,55.22
2019-05-11T21:38:49.090Z,54.96
2019-05-11T21:41:15.162Z,55.24
2019-05-11T21:43:41.226Z,55.44
2019-05-11T21:46:08.141Z,55.31
2019-05-11T21:48:34.328Z,55.82
2019-05-11T21:51:02.891Z,55.16
2019-05-11T21:53:28.936Z,55.12
2019-05-11T21:55:54.998Z,55.13
2019-05-11T21:58:20.971Z,54.87
2019-05-11T22:00:47.872Z,54.83
2019-05-11T22:03:14.216Z,55.03
2019-05-11T22:05:40.120Z,54.83
2019-05-11T22:08:08.381Z,55.06
2019-05-11T22:10:34.241Z,55.33
2019-05-11T22:13:01.033Z,55.01
2019-05-11T22:15:28.481Z,54.96
2019-05-11T22:17:54.990Z,54.77
2019-05-11T22:20:20.868Z,54.84
2019-05-11T22:22:47.613Z,55.24
2019-05-11T22:25:13.814Z,54.74
2019-05-11T22:27:39.836Z,54.67
2019-05-11T22:30:08.311Z,54.90
2019-05-11T22:32:34.547Z,54.67
2019-05-11T22:35:00.844Z,54.84
2019-05-11T22:37:27.757Z,54.73
2019-05-11T22:39:53.805Z,54.69
2019-05-11T22:42:19.753Z,54.70
2019-05-11T22:44:48.212Z,54.87
2019-05-11T22:47:13.851Z,54.87
2019-05-11T22:49:39.929Z,54.77
2019-05-11T22:52:08.071Z,54.58
2019-05-11T22:54:33.679Z,54.69
2019-05-11T22:56:59.726Z,54.69
2019-05-11T22:59:27.889Z,54.51
2019-05-11T23:01:53.379Z,54.56
2019-05-11T23:04:19.897Z,54.83
2019-05-11T23:06:47.454Z,54.71
2019-05-11T23:09:13.569Z,54.58
2019-05-11T23:11:39.656Z,54.52
2019-05-11T23:14:05.691Z,54.57
2019-05-11T23:16:31.740Z,54.66
2019-05-11T23:18:57.794Z,54.93
2019-05-11T23:21:23.844Z,54.49
2019-05-11T23:23:50.215Z,54.48
2019-05-11T23:26:17.863Z,54.49
2019-05-11T23:28:43.974Z,54.51
2019-05-11T23:31:10.030Z,54.47
2019-05-11T23:33:38.304Z,54.44
2019-05-11T23:36:03.696Z,54.52
2019-05-11T23:38:29.637Z,54.43
2019-05-11T23:40:55.583Z,54.41
2019-05-11T23:43:21.522Z,54.19
2019-05-11T23:45:47.586Z,54.22
2019-05-11T23:48:13.639Z,53.97
2019-05-11T23:50:39.586Z,53.96
2019-05-11T23:53:06.822Z,54.00
2019-05-11T23:55:33.138Z,53.88
2019-05-11T23:57:59.084Z,53.95
